createdAt,value
2018-10-09T00:00:09.977Z,26.97
2018-10-09T00:02:38.622Z,30.83
2018-10-09T00:05:07.512Z,25.30
2018-10-09T00:07:38.949Z,28.73
2018-10-09T00:10:07.645Z,28.87
2018-10-09T00:12:36.281Z,27.60
2018-10-09T00:15:04.933Z,27.57
2018-10-09T00:17:33.458Z,25.83
2018-10-09T00:20:02.240Z,23.50
2018-10-09T00:22:31.020Z,26.67
2018-10-09T00:24:59.555Z,26.73
2018-10-09T00:27:29.141Z,26.93
2018-10-09T00:29:57.741Z,26.17
2018-10-09T00:32:26.247Z,22.33
2018-10-09T00:34:54.724Z,29.13
2018-10-09T00:37:24.322Z,31.13
2018-10-09T00:39:52.916Z,30.43
2018-10-09T00:42:21.666Z,25.07
2018-10-09T00:44:50.182Z,23.47
2018-10-09T00:47:18.806Z,23.93
2018-10-09T00:49:47.465Z,22.57
2018-10-09T00:52:15.970Z,21.90
2018-10-09T00:54:44.610Z,24.43
2018-10-09T00:57:13.205Z,23.43
2018-10-09T00:59:41.931Z,20.07
2018-10-09T01:02:10.633Z,21.43
2018-10-09T01:04:39.371Z,24.27
2018-10-09T01:07:08.037Z,22.20
2018-10-09T01:09:36.539Z,22.90
2018-10-09T01:12:06.155Z,22.93
2018-10-09T01:14:34.713Z,18.67
2018-10-09T01:17:03.606Z,20.13
2018-10-09T01:19:32.214Z,22.90
2018-10-09T01:22:00.819Z,29.23
2018-10-09T01:24:29.320Z,26.93
2018-10-09T01:26:57.962Z,29.13
2018-10-09T01:29:26.642Z,25.60
2018-10-09T01:31:55.305Z,28.17
2018-10-09T01:34:23.849Z,23.77
2018-10-09T01:36:52.690Z,33.57
2018-10-09T01:39:21.357Z,34.23
2018-10-09T01:41:50.001Z,32.37
2018-10-09T01:44:18.621Z,32.60
2018-10-09T01:46:47.153Z,30.53
2018-10-09T01:49:16.927Z,31.97
2018-10-09T01:51:45.869Z,29.57
2018-10-09T01:54:14.598Z,31.73
2018-10-09T01:56:43.269Z,26.97
2018-10-09T01:59:11.820Z,25.40
2018-10-09T02:01:40.617Z,24.27
2018-10-09T02:04:12.013Z,27.87
2018-10-09T02:06:40.674Z,25.07
2018-10-09T02:09:09.973Z,23.00
2018-10-09T02:11:38.647Z,24.82
2018-10-09T02:14:07.348Z,27.43
2018-10-09T02:16:35.893Z,28.20
2018-10-09T02:19:04.389Z,25.03
2018-10-09T02:21:33.006Z,28.03
2018-10-09T02:24:01.783Z,28.37
2018-10-09T02:26:30.398Z,32.20
2018-10-09T02:28:59.839Z,34.70
2018-10-09T02:31:28.335Z,36.33
2018-10-09T02:33:56.873Z,25.37
2018-10-09T02:36:25.432Z,27.03
2018-10-09T02:38:53.898Z,27.67
2018-10-09T02:41:22.670Z,29.73
2018-10-09T02:43:51.182Z,28.70
2018-10-09T02:46:19.811Z,30.40
2018-10-09T02:48:48.442Z,29.83
2018-10-09T02:51:17.052Z,30.33
2018-10-09T02:53:45.648Z,34.63
2018-10-09T02:56:15.059Z,28.13
2018-10-09T02:58:43.622Z,29.70
2018-10-09T03:01:13.154Z,32.03
2018-10-09T03:03:42.278Z,32.13
2018-10-09T03:06:11.008Z,38.63
2018-10-09T03:08:39.531Z,37.00
2018-10-09T03:11:08.266Z,39.83
2018-10-09T03:13:36.849Z,36.00
2018-10-09T03:16:06.582Z,39.93
2018-10-09T03:18:35.267Z,31.50
2018-10-09T03:21:03.837Z,35.03
2018-10-09T03:23:33.342Z,32.83
2018-10-09T03:26:01.974Z,36.83
2018-10-09T03:28:30.521Z,29.10
2018-10-09T03:30:59.070Z,25.87
2018-10-09T03:33:27.542Z,27.53
2018-10-09T03:35:56.116Z,27.80
2018-10-09T03:38:24.761Z,26.53
2018-10-09T03:40:53.502Z,30.23
2018-10-09T03:43:22.005Z,27.20
2018-10-09T03:45:50.649Z,29.30
2018-10-09T03:48:19.421Z,27.83
2018-10-09T03:50:47.966Z,25.97
2018-10-09T03:53:16.630Z,26.50
2018-10-09T03:55:45.243Z,26.53
2018-10-09T03:58:14.717Z,28.97
2018-10-09T04:00:43.297Z,34.70
2018-10-09T04:03:11.990Z,33.70
2018-10-09T04:05:40.705Z,28.20
2018-10-09T04:08:09.310Z,47.90
2018-10-09T04:10:37.929Z,50.13
2018-10-09T04:13:06.671Z,59.50
2018-10-09T04:15:35.224Z,56.93
2018-10-09T04:18:03.861Z,66.40
2018-10-09T04:20:32.515Z,66.90
2018-10-09T04:23:01.198Z,66.17
2018-10-09T04:25:30.280Z,63.00
2018-10-09T04:27:58.893Z,60.47
2018-10-09T04:30:27.462Z,47.77
2018-10-09T04:32:56.157Z,45.13
2018-10-09T04:35:25.044Z,41.50
2018-10-09T04:37:53.549Z,42.10
2018-10-09T04:40:22.191Z,49.40
2018-10-09T04:42:50.710Z,39.93
2018-10-09T04:45:20.201Z,40.60
2018-10-09T04:47:48.870Z,40.83
2018-10-09T04:50:17.677Z,47.17
2018-10-09T04:52:46.240Z,48.37
2018-10-09T04:55:14.776Z,46.40
2018-10-09T04:57:44.402Z,42.30
2018-10-09T05:00:12.886Z,46.90
2018-10-09T05:02:41.495Z,45.70
2018-10-09T05:05:10.070Z,62.27
2018-10-09T05:07:38.681Z,72.60
2018-10-09T05:10:08.993Z,81.83
2018-10-09T05:12:38.025Z,86.47
2018-10-09T05:15:07.318Z,91.87
2018-10-09T05:17:36.204Z,91.97
2018-10-09T05:20:06.642Z,81.27
2018-10-09T05:22:35.147Z,90.67
2018-10-09T05:25:03.657Z,101.43
2018-10-09T05:27:32.566Z,102.23
2018-10-09T05:30:01.165Z,100.83
2018-10-09T05:32:29.618Z,98.30
2018-10-09T05:34:58.372Z,104.27
2018-10-09T05:37:26.893Z,114.27
2018-10-09T05:39:56.226Z,93.57
2018-10-09T05:42:24.819Z,85.60
2018-10-09T05:44:53.408Z,71.37
2018-10-09T05:47:21.962Z,85.40
2018-10-09T05:49:50.757Z,116.77
2018-10-09T05:52:19.330Z,150.23
2018-10-09T05:54:47.819Z,159.03
2018-10-09T05:57:16.417Z,175.53
2018-10-09T05:59:45.056Z,162.90
2018-10-09T06:02:13.645Z,180.73
2018-10-09T06:04:42.149Z,194.17
2018-10-09T06:07:10.878Z,168.23
2018-10-09T06:09:41.530Z,148.37
2018-10-09T06:12:10.234Z,162.00
2018-10-09T06:14:38.747Z,158.17
2018-10-09T06:17:07.350Z,143.23
2018-10-09T06:19:36.044Z,140.40
2018-10-09T06:22:04.723Z,134.93
2018-10-09T06:24:33.498Z,134.20
2018-10-09T06:27:02.112Z,131.50
2018-10-09T06:29:30.722Z,114.93
2018-10-09T06:31:59.941Z,149.80
2018-10-09T06:34:28.546Z,129.57
2018-10-09T06:36:57.134Z,120.77
2018-10-09T06:39:26.853Z,109.67
2018-10-09T06:41:55.371Z,92.40
2018-10-09T06:44:23.921Z,106.47
2018-10-09T06:46:52.512Z,110.87
2018-10-09T06:49:21.267Z,89.47
2018-10-09T06:51:50.065Z,102.17
2018-10-09T06:54:18.866Z,100.80
2018-10-09T06:56:47.367Z,91.77
2018-10-09T06:59:15.991Z,97.57
2018-10-09T07:01:45.265Z,93.73
2018-10-09T07:04:14.281Z,90.80
2018-10-09T07:06:42.826Z,87.27
2018-10-09T07:09:12.285Z,89.43
2018-10-09T07:11:40.879Z,84.87
2018-10-09T07:14:09.469Z,93.20
2018-10-09T07:16:38.181Z,91.43
2018-10-09T07:19:06.776Z,99.87
2018-10-09T07:21:35.250Z,87.87
2018-10-09T07:24:03.889Z,91.53
2018-10-09T07:26:33.602Z,89.10
2018-10-09T07:29:02.190Z,89.03
2018-10-09T07:31:30.813Z,91.70
2018-10-09T07:33:59.434Z,93.63
2018-10-09T07:36:27.942Z,84.50
2018-10-09T07:38:56.571Z,84.67
2018-10-09T07:41:25.145Z,83.80
2018-10-09T07:43:53.874Z,83.83
2018-10-09T07:46:22.498Z,86.80
2018-10-09T07:48:51.065Z,83.37
2018-10-09T07:51:19.917Z,80.30
2018-10-09T07:53:48.408Z,81.83
2018-10-09T07:56:17.194Z,84.50
2018-10-09T07:58:45.782Z,76.77
2018-10-09T08:01:14.350Z,83.20
2018-10-09T08:03:42.906Z,78.27
2018-10-09T08:06:11.534Z,84.67
2018-10-09T08:08:40.419Z,75.93
2018-10-09T08:11:08.997Z,81.57
2018-10-09T08:13:37.534Z,80.70
2018-10-09T08:16:06.099Z,82.80
2018-10-09T08:18:34.740Z,74.50
2018-10-09T08:21:03.391Z,74.73
2018-10-09T08:23:32.145Z,77.63
2018-10-09T08:26:00.669Z,79.33
2018-10-09T08:28:29.583Z,80.80
2018-10-09T08:30:58.649Z,80.30
2018-10-09T08:33:27.354Z,76.17
2018-10-09T08:35:56.008Z,74.13
2018-10-09T08:38:24.609Z,73.10
2018-10-09T08:40:53.153Z,78.33
2018-10-09T08:43:21.627Z,72.43
2018-10-09T08:45:50.075Z,69.70
2018-10-09T08:48:18.744Z,76.27
2018-10-09T08:50:47.339Z,72.37
2018-10-09T08:53:16.040Z,72.73
2018-10-09T08:55:44.760Z,70.43
2018-10-09T08:58:13.311Z,74.07
2018-10-09T09:00:41.849Z,67.03
2018-10-09T09:03:10.369Z,73.43
2018-10-09T09:05:38.885Z,70.50
2018-10-09T09:08:07.445Z,70.10
2018-10-09T09:10:36.141Z,69.97
2018-10-09T09:13:04.687Z,78.07
2018-10-09T09:15:33.239Z,72.87
2018-10-09T09:18:05.083Z,70.77
2018-10-09T09:20:33.826Z,73.60
2018-10-09T09:23:02.386Z,69.60
2018-10-09T09:25:30.937Z,66.10
2018-10-09T09:27:59.529Z,73.90
2018-10-09T09:30:28.250Z,69.33
2018-10-09T09:32:56.842Z,68.43
2018-10-09T09:35:25.472Z,68.27
2018-10-09T09:37:54.185Z,63.83
2018-10-09T09:40:22.785Z,60.07
2018-10-09T09:42:51.335Z,58.30
2018-10-09T09:45:19.849Z,60.47
2018-10-09T09:47:48.381Z,57.23
2018-10-09T09:50:17.040Z,58.93
2018-10-09T09:52:45.618Z,63.20
2018-10-09T09:55:14.312Z,60.00
2018-10-09T09:57:42.912Z,64.40
2018-10-09T10:00:16.627Z,66.83
2018-10-09T10:02:45.201Z,66.97
2018-10-09T10:05:13.765Z,71.03
2018-10-09T10:07:42.470Z,67.83
2018-10-09T10:10:11.050Z,67.93
2018-10-09T10:12:39.679Z,62.73
2018-10-09T10:15:08.471Z,61.03
2018-10-09T10:17:37.042Z,57.33
2018-10-09T10:20:05.619Z,54.23
2018-10-09T10:22:34.375Z,50.40
2018-10-09T10:25:03.074Z,51.60
2018-10-09T10:27:32.993Z,50.43
2018-10-09T10:30:01.749Z,47.77
2018-10-09T10:32:30.370Z,49.63
2018-10-09T10:34:59.097Z,46.13
2018-10-09T10:37:27.679Z,43.53
2018-10-09T10:39:57.053Z,43.03
2018-10-09T10:42:25.842Z,42.80
2018-10-09T10:44:54.373Z,42.40
2018-10-09T10:47:22.937Z,43.47
2018-10-09T10:49:51.547Z,42.50
2018-10-09T10:52:20.372Z,43.67
2018-10-09T10:54:48.940Z,39.60
2018-10-09T10:57:17.509Z,43.20
2018-10-09T10:59:46.090Z,38.07
2018-10-09T11:02:14.570Z,39.90
2018-10-09T11:04:43.166Z,39.00
2018-10-09T11:07:11.868Z,36.43
2018-10-09T11:09:40.559Z,36.83
2018-10-09T11:12:09.142Z,35.73
2018-10-09T11:14:38.817Z,33.67
2018-10-09T11:17:07.407Z,33.80
2018-10-09T11:19:36.261Z,33.23
2018-10-09T11:22:04.821Z,33.00
2018-10-09T11:24:33.361Z,31.70
2018-10-09T11:27:01.862Z,36.50
2018-10-09T11:29:30.482Z,33.73
2018-10-09T11:31:59.315Z,32.77
2018-10-09T11:34:27.895Z,30.67
2018-10-09T11:36:56.403Z,30.97
2018-10-09T11:39:24.927Z,28.83
2018-10-09T11:41:53.842Z,25.63
2018-10-09T11:44:22.595Z,20.90
2018-10-09T11:46:51.215Z,19.60
2018-10-09T11:49:19.877Z,19.43
2018-10-09T11:51:48.525Z,22.50
2018-10-09T11:54:17.042Z,19.80
2018-10-09T11:56:45.922Z,19.63
2018-10-09T11:59:14.453Z,21.43
2018-10-09T12:01:43.034Z,22.53
2018-10-09T12:04:11.740Z,19.63
2018-10-09T12:06:40.483Z,21.07
2018-10-09T12:09:11.669Z,22.97
2018-10-09T12:11:41.119Z,22.00
2018-10-09T12:14:10.210Z,18.82
2018-10-09T12:16:38.721Z,22.05
2018-10-09T12:19:07.410Z,19.50
2018-10-09T12:21:36.604Z,17.57
2018-10-09T12:24:05.015Z,19.00
2018-10-09T12:26:33.872Z,18.83
2018-10-09T12:29:02.499Z,18.52
2018-10-09T12:31:31.179Z,18.32
2018-10-09T12:34:00.310Z,18.35
2018-10-09T12:36:28.913Z,19.30
2018-10-09T12:38:57.408Z,12.63
2018-10-09T12:41:25.982Z,13.25
2018-10-09T12:43:54.681Z,14.35
2018-10-09T12:46:23.562Z,16.37
2018-10-09T12:48:53.226Z,16.45
2018-10-09T12:51:21.740Z,15.08
2018-10-09T12:53:50.437Z,15.50
2018-10-09T12:56:19.064Z,15.93
2018-10-09T12:58:47.765Z,15.97
2018-10-09T13:01:16.294Z,16.50
2018-10-09T13:03:44.855Z,14.73
2018-10-09T13:06:14.095Z,16.03
2018-10-09T13:08:42.704Z,12.67
2018-10-09T13:11:11.476Z,10.73
2018-10-09T13:13:40.460Z,11.77
2018-10-09T13:16:09.090Z,14.80
2018-10-09T13:18:37.849Z,12.37
2018-10-09T13:21:07.043Z,15.70
2018-10-09T13:23:35.835Z,17.53
2018-10-09T13:26:04.415Z,14.27
2018-10-09T13:28:33.108Z,16.07
2018-10-09T13:31:01.764Z,13.13
2018-10-09T13:33:30.333Z,14.63
2018-10-09T13:35:58.949Z,13.37
2018-10-09T13:38:28.531Z,11.60
2018-10-09T13:40:57.386Z,13.73
2018-10-09T13:43:26.221Z,11.83
2018-10-09T13:45:54.794Z,13.23
2018-10-09T13:48:23.412Z,12.43
2018-10-09T13:50:52.090Z,14.80
2018-10-09T13:53:20.702Z,13.33
2018-10-09T13:55:49.285Z,12.17
2018-10-09T13:58:18.002Z,14.90
2018-10-09T14:00:46.625Z,17.00
2018-10-09T14:03:15.451Z,13.60
2018-10-09T14:05:44.033Z,14.53
2018-10-09T14:08:12.659Z,14.80
2018-10-09T14:10:42.484Z,23.30
2018-10-09T14:13:11.138Z,15.43
2018-10-09T14:15:39.930Z,14.40
2018-10-09T14:18:08.443Z,15.53
2018-10-09T14:20:37.017Z,19.03
2018-10-09T14:23:05.750Z,15.70
2018-10-09T14:25:34.255Z,14.20
2018-10-09T14:28:03.078Z,14.17
2018-10-09T14:30:32.616Z,14.47
2018-10-09T14:33:01.218Z,17.37
2018-10-09T14:35:29.814Z,15.87
2018-10-09T14:37:58.436Z,15.50
2018-10-09T14:40:27.046Z,14.80
2018-10-09T14:42:56.203Z,20.20
2018-10-09T14:45:25.762Z,33.43
2018-10-09T14:47:54.403Z,34.40
2018-10-09T14:50:22.997Z,18.33
2018-10-09T14:52:51.726Z,14.60
2018-10-09T14:55:20.318Z,19.07
2018-10-09T14:57:49.125Z,16.33
2018-10-09T15:00:17.705Z,16.23
2018-10-09T15:02:46.241Z,22.60
2018-10-09T15:05:14.838Z,22.77
2018-10-09T15:07:43.525Z,18.43
2018-10-09T15:10:12.325Z,22.33
2018-10-09T15:12:40.856Z,20.20
2018-10-09T15:15:09.562Z,25.77
2018-10-09T15:17:38.162Z,20.90
2018-10-09T15:20:08.536Z,17.87
2018-10-09T15:22:37.104Z,24.03
2018-10-09T15:25:05.716Z,23.73
2018-10-09T15:27:34.247Z,32.20
2018-10-09T15:30:02.843Z,35.30
2018-10-09T15:32:31.572Z,37.90
2018-10-09T15:35:00.212Z,35.10
2018-10-09T15:37:28.773Z,38.00
2018-10-09T15:39:57.494Z,34.07
2018-10-09T15:42:26.118Z,34.20
2018-10-09T15:44:54.845Z,36.80
2018-10-09T15:47:23.496Z,30.63
2018-10-09T15:49:52.166Z,25.63
2018-10-09T15:52:20.763Z,28.53
2018-10-09T15:54:49.304Z,32.40
2018-10-09T15:57:17.801Z,33.43
2018-10-09T15:59:47.486Z,36.10
2018-10-09T16:02:16.013Z,34.53
2018-10-09T16:04:44.630Z,37.90
2018-10-09T16:07:13.231Z,38.03
2018-10-09T16:09:41.874Z,39.47
2018-10-09T16:12:11.521Z,36.50
2018-10-09T16:14:40.053Z,34.57
2018-10-09T16:17:08.627Z,34.43
2018-10-09T16:19:37.278Z,31.80
2018-10-09T16:22:05.987Z,32.57
2018-10-09T16:24:34.562Z,26.40
2018-10-09T16:27:03.184Z,26.73
2018-10-09T16:29:31.674Z,28.17
2018-10-09T16:32:00.757Z,32.27
2018-10-09T16:34:29.334Z,35.53
2018-10-09T16:36:57.927Z,45.27
2018-10-09T16:39:27.217Z,48.53
2018-10-09T16:41:57.714Z,60.07
2018-10-09T16:44:26.187Z,60.13
2018-10-09T16:46:54.713Z,53.97
2018-10-09T16:49:23.323Z,57.03
2018-10-09T16:51:52.003Z,57.27
2018-10-09T16:54:20.600Z,57.80
2018-10-09T16:56:49.127Z,53.07
2018-10-09T16:59:17.615Z,43.23
2018-10-09T17:01:47.174Z,34.97
2018-10-09T17:04:15.863Z,38.73
2018-10-09T17:06:44.715Z,39.37
2018-10-09T17:09:13.394Z,36.77
2018-10-09T17:11:42.559Z,38.60
2018-10-09T17:14:11.714Z,39.17
2018-10-09T17:16:40.376Z,71.77
2018-10-09T17:19:09.132Z,52.90
2018-10-09T17:21:37.839Z,69.97
2018-10-09T17:24:06.537Z,79.17
2018-10-09T17:26:35.251Z,60.53
2018-10-09T17:29:03.899Z,65.30
2018-10-09T17:31:32.486Z,65.77
2018-10-09T17:34:01.118Z,56.53
2018-10-09T17:36:29.634Z,62.37
2018-10-09T17:38:58.445Z,57.47
2018-10-09T17:41:26.982Z,49.80
2018-10-09T17:43:55.516Z,37.07
2018-10-09T17:46:24.196Z,39.97
2018-10-09T17:48:52.697Z,42.50
2018-10-09T17:51:21.217Z,46.77
2018-10-09T17:53:49.872Z,50.77
2018-10-09T17:56:18.321Z,40.90
2018-10-09T17:58:46.931Z,40.03
2018-10-09T18:01:15.634Z,41.80
2018-10-09T18:03:46.202Z,37.63
2018-10-09T18:06:14.863Z,39.80
2018-10-09T18:08:43.727Z,40.60
2018-10-09T18:11:12.553Z,40.67
2018-10-09T18:13:41.333Z,46.67
2018-10-09T18:16:10.071Z,59.60
2018-10-09T18:18:41.990Z,59.77
2018-10-09T18:21:10.709Z,60.83
2018-10-09T18:23:40.522Z,58.27
2018-10-09T18:26:09.684Z,59.73
2018-10-09T18:28:38.359Z,57.17
2018-10-09T18:31:06.862Z,59.63
2018-10-09T18:33:35.569Z,65.17
2018-10-09T18:36:04.231Z,68.57
2018-10-09T18:38:33.020Z,66.23
2018-10-09T18:41:01.723Z,64.17
2018-10-09T18:43:30.227Z,70.30
2018-10-09T18:45:58.939Z,77.23
2018-10-09T18:48:27.621Z,86.07
2018-10-09T18:50:57.239Z,85.20
2018-10-09T18:53:25.922Z,87.27
2018-10-09T18:55:54.646Z,83.23
2018-10-09T18:58:23.129Z,82.73
2018-10-09T19:00:51.787Z,80.40
2018-10-09T19:05:55.425Z,63.43
2018-10-09T19:08:24.023Z,58.07
2018-10-09T19:10:52.916Z,57.17
2018-10-09T19:13:21.496Z,50.43
2018-10-09T19:15:49.970Z,48.43
2018-10-09T19:18:18.555Z,49.70
2018-10-09T19:20:47.356Z,43.90
2018-10-09T19:23:15.926Z,44.23
2018-10-09T19:25:44.577Z,47.97
2018-10-09T19:28:13.283Z,47.17
2018-10-09T19:30:41.865Z,46.50
2018-10-09T19:33:10.453Z,49.03
2018-10-09T19:35:39.225Z,46.33
2018-10-09T19:38:08.007Z,42.37
2018-10-09T19:40:36.665Z,49.27
2018-10-09T19:43:05.377Z,45.93
2018-10-09T19:45:34.038Z,45.83
2018-10-09T19:48:02.877Z,43.30
2018-10-09T19:50:31.585Z,43.43
2018-10-09T19:53:00.399Z,45.30
2018-10-09T19:55:29.152Z,46.33
2018-10-09T19:57:57.910Z,49.83
2018-10-09T20:00:26.685Z,44.73
2018-10-09T20:02:55.405Z,47.40
2018-10-09T20:05:23.982Z,47.47
2018-10-09T20:07:52.640Z,46.20
2018-10-09T20:10:22.307Z,52.40
2018-10-09T20:12:51.658Z,54.50
2018-10-09T20:15:20.421Z,54.60
2018-10-09T20:17:49.074Z,53.73
2018-10-09T20:20:17.622Z,53.33
2018-10-09T20:22:46.442Z,54.30
2018-10-09T20:25:15.004Z,49.23
2018-10-09T20:27:43.637Z,46.33
2018-10-09T20:30:12.843Z,48.97
2018-10-09T20:32:41.403Z,52.47
2018-10-09T20:35:10.188Z,58.77
2018-10-09T20:37:39.061Z,63.53
2018-10-09T20:40:08.646Z,65.17
2018-10-09T20:42:37.355Z,58.93
2018-10-09T20:45:06.225Z,64.50
2018-10-09T20:47:39.816Z,59.47
2018-10-09T20:50:08.383Z,58.13
2018-10-09T20:52:38.208Z,57.93
2018-10-09T20:55:06.907Z,56.07
2018-10-09T20:57:35.487Z,53.93
2018-10-09T21:00:04.728Z,56.30
2018-10-09T21:02:33.722Z,55.10
2018-10-09T21:05:02.288Z,52.90
2018-10-09T21:07:30.874Z,55.13
2018-10-09T21:09:59.434Z,50.93
2018-10-09T21:12:28.082Z,49.13
2018-10-09T21:14:56.780Z,50.90
2018-10-09T21:17:25.351Z,65.03
2018-10-09T21:19:54.005Z,55.57
2018-10-09T21:22:23.406Z,61.13
2018-10-09T21:24:51.991Z,57.47
2018-10-09T21:27:20.570Z,56.07
2018-10-09T21:29:49.233Z,64.73
2018-10-09T21:32:17.760Z,63.50
2018-10-09T21:34:46.590Z,58.83
2018-10-09T21:37:15.114Z,56.13
2018-10-09T21:39:43.797Z,50.00
2018-10-09T21:42:12.590Z,42.63
2018-10-09T21:44:41.070Z,40.17
2018-10-09T21:47:09.693Z,39.67
2018-10-09T21:49:38.490Z,50.73
2018-10-09T21:52:07.186Z,40.37
2018-10-09T21:54:35.714Z,44.37
2018-10-09T21:57:04.206Z,53.17
2018-10-09T21:59:32.741Z,55.83
2018-10-09T22:02:02.297Z,52.73
2018-10-09T22:04:30.975Z,50.37
2018-10-09T22:06:59.527Z,56.93
2018-10-09T22:09:28.050Z,49.83
2018-10-09T22:11:56.684Z,55.33
2018-10-09T22:14:26.333Z,55.93
2018-10-09T22:16:55.088Z,54.30
2018-10-09T22:19:23.844Z,59.37
2018-10-09T22:21:52.681Z,51.80
2018-10-09T22:24:21.297Z,38.13
2018-10-09T22:26:51.020Z,37.80
2018-10-09T22:29:22.117Z,41.37
2018-10-09T22:31:51.852Z,42.17
2018-10-09T22:34:20.799Z,54.03
2018-10-09T22:36:49.514Z,60.93
2018-10-09T22:39:18.088Z,60.37
2018-10-09T22:41:46.606Z,63.20
2018-10-09T22:44:15.311Z,56.97
2018-10-09T22:46:43.884Z,51.20
2018-10-09T22:49:12.491Z,53.90
2018-10-09T22:51:41.137Z,64.33
2018-10-09T22:54:09.732Z,71.07
2018-10-09T22:56:38.343Z,69.87
2018-10-09T22:59:07.029Z,60.13
2018-10-09T23:01:35.699Z,54.30
2018-10-09T23:04:04.317Z,44.50
2018-10-09T23:06:32.850Z,47.60
2018-10-09T23:09:01.605Z,45.27
2018-10-09T23:11:30.125Z,46.03
2018-10-09T23:13:58.740Z,47.57
2018-10-09T23:16:27.332Z,46.83
2018-10-09T23:18:56.020Z,52.63
2018-10-09T23:21:24.533Z,48.53
2018-10-09T23:23:53.134Z,53.60
2018-10-09T23:26:21.712Z,52.47
2018-10-09T23:28:51.337Z,55.57
2018-10-09T23:31:21.014Z,57.70
2018-10-09T23:33:49.569Z,65.70
2018-10-09T23:36:19.281Z,63.80
2018-10-09T23:38:47.809Z,74.60
2018-10-09T23:41:16.365Z,75.87
2018-10-09T23:43:45.888Z,69.07
2018-10-09T23:46:14.570Z,77.87
2018-10-09T23:48:43.196Z,68.90
2018-10-09T23:51:11.773Z,64.33
2018-10-09T23:53:41.397Z,59.83
2018-10-09T23:56:09.958Z,61.60
2018-10-09T23:58:38.604Z,58.50
